sensor_id;sensor_type;location;lat;lon;timestamp;temperature;humidity
67777;DHT22;54576;52.020;5.536;2022-08-19T00:00:08;18.00;76.80
67777;DHT22;54576;52.020;5.536;2022-08-19T00:02:35;18.00;77.00
67777;DHT22;54576;52.020;5.536;2022-08-19T00:05:01;18.00;76.90
67777;DHT22;54576;52.020;5.536;2022-08-19T00:07:26;18.10;77.00
67777;DHT22;54576;52.020;5.536;2022-08-19T00:09:52;18.10;76.80
67777;DHT22;54576;52.020;5.536;2022-08-19T00:12:19;18.10;76.80
67777;DHT22;54576;52.020;5.536;2022-08-19T00:14:45;18.00;76.80
67777;DHT22;54576;52.020;5.536;2022-08-19T00:17:10;17.90;77.00
67777;DHT22;54576;52.020;5.536;2022-08-19T00:19:36;17.80;77.00
67777;DHT22;54576;52.020;5.536;2022-08-19T00:22:03;17.80;77.30
67777;DHT22;54576;52.020;5.536;2022-08-19T00:24:28;17.70;77.40
67777;DHT22;54576;52.020;5.536;2022-08-19T00:26:55;17.70;77.50
67777;DHT22;54576;52.020;5.536;2022-08-19T00:29:23;17.60;77.60
67777;DHT22;54576;52.020;5.536;2022-08-19T00:31:50;17.70;77.50
67777;DHT22;54576;52.020;5.536;2022-08-19T00:34:18;17.60;77.40
67777;DHT22;54576;52.020;5.536;2022-08-19T00:36:44;17.60;77.50
67777;DHT22;54576;52.020;5.536;2022-08-19T00:39:11;17.60;77.60
67777;DHT22;54576;52.020;5.536;2022-08-19T00:41:37;17.60;77.60
67777;DHT22;54576;52.020;5.536;2022-08-19T00:44:13;17.60;77.50
67777;DHT22;54576;52.020;5.536;2022-08-19T00:46:42;17.60;77.50
67777;DHT22;54576;52.020;5.536;2022-08-19T00:49:23;17.50;77.40
67777;DHT22;54576;52.020;5.536;2022-08-19T00:51:53;17.50;77.40
67777;DHT22;54576;52.020;5.536;2022-08-19T00:54:21;17.40;77.60
67777;DHT22;54576;52.020;5.536;2022-08-19T00:56:49;17.40;77.80
67777;DHT22;54576;52.020;5.536;2022-08-19T00:59:16;17.40;77.80
67777;DHT22;54576;52.020;5.536;2022-08-19T01:01:44;17.40;77.80
67777;DHT22;54576;52.020;5.536;2022-08-19T01:04:11;17.40;77.70
67777;DHT22;54576;52.020;5.536;2022-08-19T01:06:38;17.40;77.60
67777;DHT22;54576;52.020;5.536;2022-08-19T01:09:06;17.40;77.70
67777;DHT22;54576;52.020;5.536;2022-08-19T01:11:35;17.40;77.60
67777;DHT22;54576;52.020;5.536;2022-08-19T01:14:03;17.30;77.70
67777;DHT22;54576;52.020;5.536;2022-08-19T01:16:30;17.20;77.80
67777;DHT22;54576;52.020;5.536;2022-08-19T01:18:56;17.20;78.00
67777;DHT22;54576;52.020;5.536;2022-08-19T01:21:36;17.20;78.00
67777;DHT22;54576;52.020;5.536;2022-08-19T01:24:04;17.20;78.00
67777;DHT22;54576;52.020;5.536;2022-08-19T01:26:30;17.10;78.10
67777;DHT22;54576;52.020;5.536;2022-08-19T01:28:58;17.10;78.20
67777;DHT22;54576;52.020;5.536;2022-08-19T01:31:26;17.10;78.20
67777;DHT22;54576;52.020;5.536;2022-08-19T01:33:52;17.10;78.20
67777;DHT22;54576;52.020;5.536;2022-08-19T01:36:27;17.00;78.10
67777;DHT22;54576;52.020;5.536;2022-08-19T01:38:54;17.00;78.30
67777;DHT22;54576;52.020;5.536;2022-08-19T01:41:19;16.90;78.30
67777;DHT22;54576;52.020;5.536;2022-08-19T01:43:45;16.80;79.30
67777;DHT22;54576;52.020;5.536;2022-08-19T01:46:11;16.80;78.60
67777;DHT22;54576;52.020;5.536;2022-08-19T01:48:40;16.80;78.60
67777;DHT22;54576;52.020;5.536;2022-08-19T01:51:07;16.80;78.60
67777;DHT22;54576;52.020;5.536;2022-08-19T01:53:33;16.80;78.50
67777;DHT22;54576;52.020;5.536;2022-08-19T01:55:59;16.80;78.50
67777;DHT22;54576;52.020;5.536;2022-08-19T01:58:30;16.80;78.60
67777;DHT22;54576;52.020;5.536;2022-08-19T02:00:58;16.70;78.60
67777;DHT22;54576;52.020;5.536;2022-08-19T02:03:24;16.70;78.80
67777;DHT22;54576;52.020;5.536;2022-08-19T02:05:55;16.70;79.00
67777;DHT22;54576;52.020;5.536;2022-08-19T02:08:21;16.60;78.90
67777;DHT22;54576;52.020;5.536;2022-08-19T02:10:46;16.70;78.80
67777;DHT22;54576;52.020;5.536;2022-08-19T02:13:13;16.70;78.60
67777;DHT22;54576;52.020;5.536;2022-08-19T02:15:39;16.70;78.50
67777;DHT22;54576;52.020;5.536;2022-08-19T02:18:06;16.70;78.50
67777;DHT22;54576;52.020;5.536;2022-08-19T02:20:32;16.60;78.50
67777;DHT22;54576;52.020;5.536;2022-08-19T02:22:59;16.60;78.60
67777;DHT22;54576;52.020;5.536;2022-08-19T02:25:26;16.60;78.70
67777;DHT22;54576;52.020;5.536;2022-08-19T02:27:52;16.50;78.90
67777;DHT22;54576;52.020;5.536;2022-08-19T02:30:19;16.50;79.00
67777;DHT22;54576;52.020;5.536;2022-08-19T02:32:46;16.40;78.90
67777;DHT22;54576;52.020;5.536;2022-08-19T02:35:13;16.40;79.00
67777;DHT22;54576;52.020;5.536;2022-08-19T02:37:43;16.50;79.00
67777;DHT22;54576;52.020;5.536;2022-08-19T02:40:29;16.40;79.00
67777;DHT22;54576;52.020;5.536;2022-08-19T02:42:56;16.40;79.10
67777;DHT22;54576;52.020;5.536;2022-08-19T02:45:21;16.40;79.30
67777;DHT22;54576;52.020;5.536;2022-08-19T02:47:48;16.40;79.20
67777;DHT22;54576;52.020;5.536;2022-08-19T02:50:13;16.40;79.20
67777;DHT22;54576;52.020;5.536;2022-08-19T02:52:40;16.40;79.10
67777;DHT22;54576;52.020;5.536;2022-08-19T02:55:06;16.50;79.00
67777;DHT22;54576;52.020;5.536;2022-08-19T02:57:32;16.50;79.00
67777;DHT22;54576;52.020;5.536;2022-08-19T02:59:58;16.50;79.00
67777;DHT22;54576;52.020;5.536;2022-08-19T03:02:24;16.40;78.90
67777;DHT22;54576;52.020;5.536;2022-08-19T03:04:50;16.40;78.90
67777;DHT22;54576;52.020;5.536;2022-08-19T03:07:17;16.40;78.90
67777;DHT22;54576;52.020;5.536;2022-08-19T03:09:44;16.40;78.90
67777;DHT22;54576;52.020;5.536;2022-08-19T03:12:10;16.30;79.00
67777;DHT22;54576;52.020;5.536;2022-08-19T03:14:36;16.30;79.00
67777;DHT22;54576;52.020;5.536;2022-08-19T03:17:02;16.30;79.10
67777;DHT22;54576;52.020;5.536;2022-08-19T03:19:28;16.20;79.10
67777;DHT22;54576;52.020;5.536;2022-08-19T03:21:54;16.20;79.20
67777;DHT22;54576;52.020;5.536;2022-08-19T03:24:20;16.20;79.20
67777;DHT22;54576;52.020;5.536;2022-08-19T03:26:49;16.20;79.20
67777;DHT22;54576;52.020;5.536;2022-08-19T03:29:16;16.20;79.10
67777;DHT22;54576;52.020;5.536;2022-08-19T03:31:43;16.20;79.10
67777;DHT22;54576;52.020;5.536;2022-08-19T03:34:11;16.20;79.20
67777;DHT22;54576;52.020;5.536;2022-08-19T03:36:37;16.20;79.10
67777;DHT22;54576;52.020;5.536;2022-08-19T03:39:03;16.20;79.20
67777;DHT22;54576;52.020;5.536;2022-08-19T03:41:36;16.20;79.30
67777;DHT22;54576;52.020;5.536;2022-08-19T03:44:03;16.20;79.20
67777;DHT22;54576;52.020;5.536;2022-08-19T03:46:31;16.10;79.20
67777;DHT22;54576;52.020;5.536;2022-08-19T03:48:59;16.20;79.30
67777;DHT22;54576;52.020;5.536;2022-08-19T03:51:30;16.20;79.20
67777;DHT22;54576;52.020;5.536;2022-08-19T03:53:58;16.20;79.10
67777;DHT22;54576;52.020;5.536;2022-08-19T03:56:25;16.20;78.90
67777;DHT22;54576;52.020;5.536;2022-08-19T03:58:52;16.30;79.00
67777;DHT22;54576;52.020;5.536;2022-08-19T04:01:20;16.30;79.00
67777;DHT22;54576;52.020;5.536;2022-08-19T04:03:47;16.30;78.90
67777;DHT22;54576;52.020;5.536;2022-08-19T04:06:21;16.20;79.00
67777;DHT22;54576;52.020;5.536;2022-08-19T04:08:49;16.20;79.20
67777;DHT22;54576;52.020;5.536;2022-08-19T04:11:18;16.10;79.10
67777;DHT22;54576;52.020;5.536;2022-08-19T04:13:45;16.10;79.10
67777;DHT22;54576;52.020;5.536;2022-08-19T04:16:11;16.10;79.10
67777;DHT22;54576;52.020;5.536;2022-08-19T04:18:39;16.00;79.20
67777;DHT22;54576;52.020;5.536;2022-08-19T04:21:06;16.00;79.30
67777;DHT22;54576;52.020;5.536;2022-08-19T04:23:34;16.00;79.30
67777;DHT22;54576;52.020;5.536;2022-08-19T04:26:00;16.00;79.30
67777;DHT22;54576;52.020;5.536;2022-08-19T04:28:26;16.00;79.20
67777;DHT22;54576;52.020;5.536;2022-08-19T04:30:53;16.00;79.20
67777;DHT22;54576;52.020;5.536;2022-08-19T04:33:22;15.90;79.30
67777;DHT22;54576;52.020;5.536;2022-08-19T04:35:49;15.90;79.40
67777;DHT22;54576;52.020;5.536;2022-08-19T04:38:20;15.90;79.40
67777;DHT22;54576;52.020;5.536;2022-08-19T04:40:48;15.90;79.50
67777;DHT22;54576;52.020;5.536;2022-08-19T04:43:34;15.90;79.50
67777;DHT22;54576;52.020;5.536;2022-08-19T04:46:12;15.80;79.50
67777;DHT22;54576;52.020;5.536;2022-08-19T04:48:39;15.80;79.50
67777;DHT22;54576;52.020;5.536;2022-08-19T04:51:10;15.80;79.60
67777;DHT22;54576;52.020;5.536;2022-08-19T04:53:39;15.80;79.60
67777;DHT22;54576;52.020;5.536;2022-08-19T04:56:08;15.80;79.60
67777;DHT22;54576;52.020;5.536;2022-08-19T04:58:35;15.80;79.60
67777;DHT22;54576;52.020;5.536;2022-08-19T05:01:01;15.80;79.60
67777;DHT22;54576;52.020;5.536;2022-08-19T05:03:28;15.80;79.70
67777;DHT22;54576;52.020;5.536;2022-08-19T05:06:03;15.90;79.80
67777;DHT22;54576;52.020;5.536;2022-08-19T05:08:29;15.90;79.60
67777;DHT22;54576;52.020;5.536;2022-08-19T05:10:55;15.90;79.50
67777;DHT22;54576;52.020;5.536;2022-08-19T05:13:22;16.00;79.60
67777;DHT22;54576;52.020;5.536;2022-08-19T05:15:56;16.00;79.50
67777;DHT22;54576;52.020;5.536;2022-08-19T05:18:22;16.10;79.50
67777;DHT22;54576;52.020;5.536;2022-08-19T05:21:13;16.30;79.40
67777;DHT22;54576;52.020;5.536;2022-08-19T05:23:57;16.70;79.10
67777;DHT22;54576;52.020;5.536;2022-08-19T05:26:24;17.10;78.30
67777;DHT22;54576;52.020;5.536;2022-08-19T05:28:52;17.50;77.70
67777;DHT22;54576;52.020;5.536;2022-08-19T05:31:18;17.90;77.10
67777;DHT22;54576;52.020;5.536;2022-08-19T05:33:43;18.20;76.40
67777;DHT22;54576;52.020;5.536;2022-08-19T05:36:09;18.30;76.20
67777;DHT22;54576;52.020;5.536;2022-08-19T05:38:35;18.40;76.30
67777;DHT22;54576;52.020;5.536;2022-08-19T05:41:09;18.70;76.10
67777;DHT22;54576;52.020;5.536;2022-08-19T05:43:36;18.90;76.00
67777;DHT22;54576;52.020;5.536;2022-08-19T05:46:03;19.30;75.60
67777;DHT22;54576;52.020;5.536;2022-08-19T05:48:29;19.70;75.30
67777;DHT22;54576;52.020;5.536;2022-08-19T05:50:55;19.90;75.00
67777;DHT22;54576;52.020;5.536;2022-08-19T05:53:22;20.10;74.70
67777;DHT22;54576;52.020;5.536;2022-08-19T05:55:47;20.20;74.70
67777;DHT22;54576;52.020;5.536;2022-08-19T05:58:13;20.00;75.10
67777;DHT22;54576;52.020;5.536;2022-08-19T06:00:38;19.80;75.90
67777;DHT22;54576;52.020;5.536;2022-08-19T06:03:05;19.70;76.40
67777;DHT22;54576;52.020;5.536;2022-08-19T06:05:32;19.70;77.00
67777;DHT22;54576;52.020;5.536;2022-08-19T06:07:58;19.60;77.40
67777;DHT22;54576;52.020;5.536;2022-08-19T06:10:24;19.50;77.80
67777;DHT22;54576;52.020;5.536;2022-08-19T06:12:50;19.50;78.10
67777;DHT22;54576;52.020;5.536;2022-08-19T06:15:15;19.50;78.30
67777;DHT22;54576;52.020;5.536;2022-08-19T06:17:42;19.50;78.60
67777;DHT22;54576;52.020;5.536;2022-08-19T06:20:12;19.40;78.50
67777;DHT22;54576;52.020;5.536;2022-08-19T06:22:40;19.40;78.60
67777;DHT22;54576;52.020;5.536;2022-08-19T06:25:06;19.50;78.80
67777;DHT22;54576;52.020;5.536;2022-08-19T06:27:32;19.40;78.90
67777;DHT22;54576;52.020;5.536;2022-08-19T06:29:58;19.40;79.00
67777;DHT22;54576;52.020;5.536;2022-08-19T06:32:24;19.40;79.00
67777;DHT22;54576;52.020;5.536;2022-08-19T06:34:50;19.40;79.20
67777;DHT22;54576;52.020;5.536;2022-08-19T06:37:16;19.30;79.10
67777;DHT22;54576;52.020;5.536;2022-08-19T06:39:43;19.40;79.30
67777;DHT22;54576;52.020;5.536;2022-08-19T06:42:10;19.50;79.20
67777;DHT22;54576;52.020;5.536;2022-08-19T06:44:40;19.50;79.10
67777;DHT22;54576;52.020;5.536;2022-08-19T06:47:08;19.50;79.20
67777;DHT22;54576;52.020;5.536;2022-08-19T06:49:34;19.50;79.30
67777;DHT22;54576;52.020;5.536;2022-08-19T06:52:01;19.50;79.40
67777;DHT22;54576;52.020;5.536;2022-08-19T06:54:27;19.50;79.50
67777;DHT22;54576;52.020;5.536;2022-08-19T06:56:59;19.50;79.50
67777;DHT22;54576;52.020;5.536;2022-08-19T06:59:27;19.50;79.60
67777;DHT22;54576;52.020;5.536;2022-08-19T07:01:55;19.50;80.50
67777;DHT22;54576;52.020;5.536;2022-08-19T07:04:24;19.50;79.60
67777;DHT22;54576;52.020;5.536;2022-08-19T07:07:07;19.50;79.70
67777;DHT22;54576;52.020;5.536;2022-08-19T07:09:35;19.40;80.00
67777;DHT22;54576;52.020;5.536;2022-08-19T07:12:05;19.40;79.90
67777;DHT22;54576;52.020;5.536;2022-08-19T07:14:33;19.40;80.00
67777;DHT22;54576;52.020;5.536;2022-08-19T07:17:02;19.40;80.00
67777;DHT22;54576;52.020;5.536;2022-08-19T07:19:29;19.50;80.00
67777;DHT22;54576;52.020;5.536;2022-08-19T07:21:55;19.50;79.90
67777;DHT22;54576;52.020;5.536;2022-08-19T07:24:23;19.50;80.00
67777;DHT22;54576;52.020;5.536;2022-08-19T07:26:51;19.50;80.10
67777;DHT22;54576;52.020;5.536;2022-08-19T07:29:18;19.50;80.00
67777;DHT22;54576;52.020;5.536;2022-08-19T07:31:43;19.50;80.00
67777;DHT22;54576;52.020;5.536;2022-08-19T07:34:11;19.60;80.00
67777;DHT22;54576;52.020;5.536;2022-08-19T07:36:40;19.70;80.00
67777;DHT22;54576;52.020;5.536;2022-08-19T07:39:18;19.70;79.80
67777;DHT22;54576;52.020;5.536;2022-08-19T07:41:45;19.80;80.00
67777;DHT22;54576;52.020;5.536;2022-08-19T07:44:11;19.80;79.80
67777;DHT22;54576;52.020;5.536;2022-08-19T07:46:40;19.90;79.90
67777;DHT22;54576;52.020;5.536;2022-08-19T07:49:07;19.90;79.80
67777;DHT22;54576;52.020;5.536;2022-08-19T07:51:33;20.00;79.90
67777;DHT22;54576;52.020;5.536;2022-08-19T07:53:59;20.00;79.80
67777;DHT22;54576;52.020;5.536;2022-08-19T07:56:25;20.10;79.60
67777;DHT22;54576;52.020;5.536;2022-08-19T07:58:52;20.20;79.40
67777;DHT22;54576;52.020;5.536;2022-08-19T08:01:21;20.30;79.30
67777;DHT22;54576;52.020;5.536;2022-08-19T08:03:48;20.30;79.30
67777;DHT22;54576;52.020;5.536;2022-08-19T08:06:33;20.50;79.20
67777;DHT22;54576;52.020;5.536;2022-08-19T08:09:26;20.60;79.00
67777;DHT22;54576;52.020;5.536;2022-08-19T08:12:03;20.70;78.80
67777;DHT22;54576;52.020;5.536;2022-08-19T08:14:40;20.80;78.80
67777;DHT22;54576;52.020;5.536;2022-08-19T08:17:07;20.80;78.50
67777;DHT22;54576;52.020;5.536;2022-08-19T08:19:33;20.80;78.50
67777;DHT22;54576;52.020;5.536;2022-08-19T08:22:00;20.90;78.40
67777;DHT22;54576;52.020;5.536;2022-08-19T08:24:28;21.00;78.10
67777;DHT22;54576;52.020;5.536;2022-08-19T08:26:54;21.00;78.00
67777;DHT22;54576;52.020;5.536;2022-08-19T08:29:20;21.10;78.00
67777;DHT22;54576;52.020;5.536;2022-08-19T08:31:46;21.30;77.80
67777;DHT22;54576;52.020;5.536;2022-08-19T08:34:13;21.40;77.30
67777;DHT22;54576;52.020;5.536;2022-08-19T08:36:42;21.50;77.10
67777;DHT22;54576;52.020;5.536;2022-08-19T08:39:09;21.70;77.00
67777;DHT22;54576;52.020;5.536;2022-08-19T08:42:07;21.80;76.70
67777;DHT22;54576;52.020;5.536;2022-08-19T08:44:43;21.80;76.30
67777;DHT22;54576;52.020;5.536;2022-08-19T08:47:16;21.80;76.70
67777;DHT22;54576;52.020;5.536;2022-08-19T08:49:56;21.90;76.50
67777;DHT22;54576;52.020;5.536;2022-08-19T08:52:28;22.00;76.00
67777;DHT22;54576;52.020;5.536;2022-08-19T08:54:57;22.00;76.20
67777;DHT22;54576;52.020;5.536;2022-08-19T08:57:26;21.90;75.90
67777;DHT22;54576;52.020;5.536;2022-08-19T08:59:54;21.90;75.60
67777;DHT22;54576;52.020;5.536;2022-08-19T09:02:21;21.90;76.50
67777;DHT22;54576;52.020;5.536;2022-08-19T09:04:47;22.00;76.30
67777;DHT22;54576;52.020;5.536;2022-08-19T09:09:50;22.10;76.10
67777;DHT22;54576;52.020;5.536;2022-08-19T09:12:38;22.20;75.70
67777;DHT22;54576;52.020;5.536;2022-08-19T09:15:11;22.40;75.50
67777;DHT22;54576;52.020;5.536;2022-08-19T09:17:37;22.50;75.00
67777;DHT22;54576;52.020;5.536;2022-08-19T09:22:40;22.50;75.10
67777;DHT22;54576;52.020;5.536;2022-08-19T09:25:09;22.60;74.90
67777;DHT22;54576;52.020;5.536;2022-08-19T09:27:36;22.70;74.50
67777;DHT22;54576;52.020;5.536;2022-08-19T09:30:04;22.80;74.30
67777;DHT22;54576;52.020;5.536;2022-08-19T09:32:30;22.80;73.90
67777;DHT22;54576;52.020;5.536;2022-08-19T09:34:55;22.90;73.80
67777;DHT22;54576;52.020;5.536;2022-08-19T09:37:26;22.80;73.40
67777;DHT22;54576;52.020;5.536;2022-08-19T09:39:52;22.70;74.10
67777;DHT22;54576;52.020;5.536;2022-08-19T09:42:18;22.80;73.80
67777;DHT22;54576;52.020;5.536;2022-08-19T09:44:44;22.90;73.60
67777;DHT22;54576;52.020;5.536;2022-08-19T09:47:10;23.10;73.10
67777;DHT22;54576;52.020;5.536;2022-08-19T09:49:36;23.20;72.70
67777;DHT22;54576;52.020;5.536;2022-08-19T09:52:03;23.30;72.50
67777;DHT22;54576;52.020;5.536;2022-08-19T09:54:28;23.30;72.30
67777;DHT22;54576;52.020;5.536;2022-08-19T09:56:55;23.50;72.20
67777;DHT22;54576;52.020;5.536;2022-08-19T09:59:22;23.60;71.80
67777;DHT22;54576;52.020;5.536;2022-08-19T10:01:48;23.70;71.90
67777;DHT22;54576;52.020;5.536;2022-08-19T10:04:14;23.70;71.50
67777;DHT22;54576;52.020;5.536;2022-08-19T10:06:39;23.80;71.00
67777;DHT22;54576;52.020;5.536;2022-08-19T10:09:09;23.80;70.80
67777;DHT22;54576;52.020;5.536;2022-08-19T10:11:35;23.80;70.80
67777;DHT22;54576;52.020;5.536;2022-08-19T10:14:03;23.80;71.00
67777;DHT22;54576;52.020;5.536;2022-08-19T10:16:30;24.10;70.80
67777;DHT22;54576;52.020;5.536;2022-08-19T10:18:56;24.10;69.10
67777;DHT22;54576;52.020;5.536;2022-08-19T10:21:25;24.10;70.80
67777;DHT22;54576;52.020;5.536;2022-08-19T10:23:53;24.10;70.70
67777;DHT22;54576;52.020;5.536;2022-08-19T10:26:22;24.00;71.00
67777;DHT22;54576;52.020;5.536;2022-08-19T10:28:49;24.10;70.90
67777;DHT22;54576;52.020;5.536;2022-08-19T10:31:21;24.00;71.00
67777;DHT22;54576;52.020;5.536;2022-08-19T10:33:47;24.10;70.80
67777;DHT22;54576;52.020;5.536;2022-08-19T10:36:16;24.30;77.80
67777;DHT22;54576;52.020;5.536;2022-08-19T10:38:43;24.10;70.80
67777;DHT22;54576;52.020;5.536;2022-08-19T10:41:22;24.10;70.80
67777;DHT22;54576;52.020;5.536;2022-08-19T10:43:51;24.10;70.80
67777;DHT22;54576;52.020;5.536;2022-08-19T10:46:18;24.10;71.00
67777;DHT22;54576;52.020;5.536;2022-08-19T10:48:44;24.20;70.80
67777;DHT22;54576;52.020;5.536;2022-08-19T10:51:10;24.20;70.60
67777;DHT22;54576;52.020;5.536;2022-08-19T10:53:55;24.30;70.40
67777;DHT22;54576;52.020;5.536;2022-08-19T10:56:21;24.40;70.20
67777;DHT22;54576;52.020;5.536;2022-08-19T10:59:05;24.40;69.70
67777;DHT22;54576;52.020;5.536;2022-08-19T11:01:32;24.50;69.60
67777;DHT22;54576;52.020;5.536;2022-08-19T11:04:03;24.60;69.30
67777;DHT22;54576;52.020;5.536;2022-08-19T11:06:31;24.70;69.20
67777;DHT22;54576;52.020;5.536;2022-08-19T11:08:56;24.90;69.20
67777;DHT22;54576;52.020;5.536;2022-08-19T11:11:23;25.00;68.60
67777;DHT22;54576;52.020;5.536;2022-08-19T11:13:49;25.10;68.40
67777;DHT22;54576;52.020;5.536;2022-08-19T11:16:24;25.30;68.60
67777;DHT22;54576;52.020;5.536;2022-08-19T11:18:54;25.40;67.80
67777;DHT22;54576;52.020;5.536;2022-08-19T11:21:22;25.50;67.60
67777;DHT22;54576;52.020;5.536;2022-08-19T11:23:51;25.40;67.60
67777;DHT22;54576;52.020;5.536;2022-08-19T11:26:19;25.40;68.10
67777;DHT22;54576;52.020;5.536;2022-08-19T11:28:45;25.30;68.20
67777;DHT22;54576;52.020;5.536;2022-08-19T11:31:16;25.40;68.40
67777;DHT22;54576;52.020;5.536;2022-08-19T11:33:42;25.50;67.40
67777;DHT22;54576;52.020;5.536;2022-08-19T11:36:09;25.40;68.10
67777;DHT22;54576;52.020;5.536;2022-08-19T11:38:35;25.30;68.20
67777;DHT22;54576;52.020;5.536;2022-08-19T11:41:03;25.20;67.90
67777;DHT22;54576;52.020;5.536;2022-08-19T11:43:30;25.20;68.50
67777;DHT22;54576;52.020;5.536;2022-08-19T11:45:56;25.30;68.70
67777;DHT22;54576;52.020;5.536;2022-08-19T11:48:23;25.40;68.00
67777;DHT22;54576;52.020;5.536;2022-08-19T11:50:50;25.50;67.60
67777;DHT22;54576;52.020;5.536;2022-08-19T11:53:17;25.60;67.40
67777;DHT22;54576;52.020;5.536;2022-08-19T11:55:46;25.50;67.60
67777;DHT22;54576;52.020;5.536;2022-08-19T11:58:13;25.60;67.60
67777;DHT22;54576;52.020;5.536;2022-08-19T12:00:39;25.70;69.90
67777;DHT22;54576;52.020;5.536;2022-08-19T12:03:05;25.80;68.60
67777;DHT22;54576;52.020;5.536;2022-08-19T12:05:31;25.80;77.40
67777;DHT22;54576;52.020;5.536;2022-08-19T12:07:57;25.70;67.30
67777;DHT22;54576;52.020;5.536;2022-08-19T12:10:23;25.70;75.30
67777;DHT22;54576;52.020;5.536;2022-08-19T12:12:49;25.60;67.40
67777;DHT22;54576;52.020;5.536;2022-08-19T12:15:14;25.60;68.00
67777;DHT22;54576;52.020;5.536;2022-08-19T12:17:41;25.70;67.80
67777;DHT22;54576;52.020;5.536;2022-08-19T12:20:09;25.70;67.40
67777;DHT22;54576;52.020;5.536;2022-08-19T12:22:36;25.70;67.40
67777;DHT22;54576;52.020;5.536;2022-08-19T12:25:02;25.80;65.70
67777;DHT22;54576;52.020;5.536;2022-08-19T12:27:28;26.00;84.70
67777;DHT22;54576;52.020;5.536;2022-08-19T12:29:54;26.00;68.00
67777;DHT22;54576;52.020;5.536;2022-08-19T12:32:19;26.00;66.90
67777;DHT22;54576;52.020;5.536;2022-08-19T12:34:45;26.10;66.80
67777;DHT22;54576;52.020;5.536;2022-08-19T12:37:12;26.20;66.80
67777;DHT22;54576;52.020;5.536;2022-08-19T12:39:40;26.30;80.20
67777;DHT22;54576;52.020;5.536;2022-08-19T12:42:08;26.30;66.30
67777;DHT22;54576;52.020;5.536;2022-08-19T12:44:36;26.30;66.20
67777;DHT22;54576;52.020;5.536;2022-08-19T12:47:01;26.30;66.40
67777;DHT22;54576;52.020;5.536;2022-08-19T12:49:29;26.30;66.60
67777;DHT22;54576;52.020;5.536;2022-08-19T12:51:56;26.30;66.30
67777;DHT22;54576;52.020;5.536;2022-08-19T12:54:23;26.30;66.10
67777;DHT22;54576;52.020;5.536;2022-08-19T12:56:48;26.20;66.20
67777;DHT22;54576;52.020;5.536;2022-08-19T12:59:14;26.20;66.60
67777;DHT22;54576;52.020;5.536;2022-08-19T13:01:43;26.20;66.40
67777;DHT22;54576;52.020;5.536;2022-08-19T13:04:09;26.20;66.30
67777;DHT22;54576;52.020;5.536;2022-08-19T13:06:35;26.10;66.50
67777;DHT22;54576;52.020;5.536;2022-08-19T13:09:01;26.00;66.50
67777;DHT22;54576;52.020;5.536;2022-08-19T13:11:27;25.90;66.70
67777;DHT22;54576;52.020;5.536;2022-08-19T13:13:57;25.70;68.40
67777;DHT22;54576;52.020;5.536;2022-08-19T13:16:24;25.60;68.10
67777;DHT22;54576;52.020;5.536;2022-08-19T13:18:50;25.50;74.80
67777;DHT22;54576;52.020;5.536;2022-08-19T13:21:17;25.30;69.60
67777;DHT22;54576;52.020;5.536;2022-08-19T13:23:45;25.30;70.20
67777;DHT22;54576;52.020;5.536;2022-08-19T13:26:12;25.30;72.80
67777;DHT22;54576;52.020;5.536;2022-08-19T13:28:38;25.20;71.90
67777;DHT22;54576;52.020;5.536;2022-08-19T13:31:24;25.20;70.00
67777;DHT22;54576;52.020;5.536;2022-08-19T13:34:09;25.10;69.30
67777;DHT22;54576;52.020;5.536;2022-08-19T13:36:35;25.10;72.20
67777;DHT22;54576;52.020;5.536;2022-08-19T13:39:02;24.90;70.40
67777;DHT22;54576;52.020;5.536;2022-08-19T13:41:28;24.70;70.30
67777;DHT22;54576;52.020;5.536;2022-08-19T13:43:54;24.60;70.90
67777;DHT22;54576;52.020;5.536;2022-08-19T13:46:21;24.60;72.10
67777;DHT22;54576;52.020;5.536;2022-08-19T13:48:47;24.60;71.40
67777;DHT22;54576;52.020;5.536;2022-08-19T13:51:17;24.70;71.60
67777;DHT22;54576;52.020;5.536;2022-08-19T13:53:43;24.80;71.30
67777;DHT22;54576;52.020;5.536;2022-08-19T13:56:11;24.90;71.40
67777;DHT22;54576;52.020;5.536;2022-08-19T13:58:38;24.90;71.30
67777;DHT22;54576;52.020;5.536;2022-08-19T14:01:04;24.90;71.30
67777;DHT22;54576;52.020;5.536;2022-08-19T14:03:30;24.90;71.10
67777;DHT22;54576;52.020;5.536;2022-08-19T14:05:56;24.90;71.00
67777;DHT22;54576;52.020;5.536;2022-08-19T14:08:23;24.80;70.90
67777;DHT22;54576;52.020;5.536;2022-08-19T14:13:20;24.70;99.90
67777;DHT22;54576;52.020;5.536;2022-08-19T14:15:46;24.70;99.90
67777;DHT22;54576;52.020;5.536;2022-08-19T14:18:13;24.50;70.80
67777;DHT22;54576;52.020;5.536;2022-08-19T14:20:39;24.40;71.30
67777;DHT22;54576;52.020;5.536;2022-08-19T14:23:05;24.20;71.90
67777;DHT22;54576;52.020;5.536;2022-08-19T14:25:31;24.00;78.20
67777;DHT22;54576;52.020;5.536;2022-08-19T14:27:58;23.70;73.50
67777;DHT22;54576;52.020;5.536;2022-08-19T14:30:29;23.40;74.50
67777;DHT22;54576;52.020;5.536;2022-08-19T14:32:59;23.40;82.20
67777;DHT22;54576;52.020;5.536;2022-08-19T14:35:26;23.20;75.30
67777;DHT22;54576;52.020;5.536;2022-08-19T14:37:53;23.10;75.30
67777;DHT22;54576;52.020;5.536;2022-08-19T14:40:25;23.10;75.60
67777;DHT22;54576;52.020;5.536;2022-08-19T14:42:56;23.10;75.30
67777;DHT22;54576;52.020;5.536;2022-08-19T14:45:25;23.00;75.50
67777;DHT22;54576;52.020;5.536;2022-08-19T14:47:51;23.10;75.60
67777;DHT22;54576;52.020;5.536;2022-08-19T14:50:17;23.10;75.80
67777;DHT22;54576;52.020;5.536;2022-08-19T14:52:44;23.10;75.60
67777;DHT22;54576;52.020;5.536;2022-08-19T14:55:10;23.10;75.90
67777;DHT22;54576;52.020;5.536;2022-08-19T14:57:35;23.10;76.00
67777;DHT22;54576;52.020;5.536;2022-08-19T15:00:02;23.10;75.80
67777;DHT22;54576;52.020;5.536;2022-08-19T15:02:28;23.20;75.90
67777;DHT22;54576;52.020;5.536;2022-08-19T15:04:53;23.30;75.70
67777;DHT22;54576;52.020;5.536;2022-08-19T15:07:21;23.50;75.80
67777;DHT22;54576;52.020;5.536;2022-08-19T15:09:49;23.50;75.70
67777;DHT22;54576;52.020;5.536;2022-08-19T15:12:16;23.50;75.60
67777;DHT22;54576;52.020;5.536;2022-08-19T15:14:41;23.40;75.90
67777;DHT22;54576;52.020;5.536;2022-08-19T15:17:09;23.50;75.90
67777;DHT22;54576;52.020;5.536;2022-08-19T15:19:35;23.50;76.10
67777;DHT22;54576;52.020;5.536;2022-08-19T15:22:01;23.50;77.10
67777;DHT22;54576;52.020;5.536;2022-08-19T15:24:27;23.50;76.00
67777;DHT22;54576;52.020;5.536;2022-08-19T15:26:54;23.60;76.00
67777;DHT22;54576;52.020;5.536;2022-08-19T15:29:21;23.50;76.00
67777;DHT22;54576;52.020;5.536;2022-08-19T15:31:50;23.50;76.00
67777;DHT22;54576;52.020;5.536;2022-08-19T15:34:16;23.70;76.00
67777;DHT22;54576;52.020;5.536;2022-08-19T15:39:08;23.80;74.90
67777;DHT22;54576;52.020;5.536;2022-08-19T15:41:34;23.90;75.70
67777;DHT22;54576;52.020;5.536;2022-08-19T15:44:04;24.10;76.40